createdAt,value
2022-10-17T00:01:06.418Z,101664.50
2022-10-17T00:03:36.093Z,101674.78
2022-10-17T00:06:12.798Z,101676.75
2022-10-17T00:08:43.963Z,101670.88
2022-10-17T00:11:24.156Z,101667.47
2022-10-17T00:13:56.515Z,101670.78
2022-10-17T00:16:27.751Z,101657.59
2022-10-17T00:18:55.420Z,101648.03
2022-10-17T00:21:25.768Z,101649.34
2022-10-17T00:23:54.054Z,101650.47
2022-10-17T00:26:23.162Z,101648.31
2022-10-17T00:28:53.401Z,101651.22
2022-10-17T00:31:24.496Z,101666.88
2022-10-17T00:33:53.373Z,101665.31
2022-10-17T00:36:26.463Z,101663.47
2022-10-17T00:38:59.622Z,101656.88
2022-10-17T00:41:33.101Z,101643.59
2022-10-17T00:44:30.678Z,101646.66
2022-10-17T00:47:13.978Z,101657.25
2022-10-17T00:49:41.599Z,101654.81
2022-10-17T00:52:22.394Z,101656.44
2022-10-17T00:55:08.413Z,101654.00
2022-10-17T00:57:36.263Z,101653.16
2022-10-17T01:00:10.188Z,101660.38
2022-10-17T01:02:38.001Z,101656.44
2022-10-17T01:05:07.783Z,101664.47
2022-10-17T01:07:38.595Z,101664.47
2022-10-17T01:10:07.969Z,101669.22
2022-10-17T01:13:24.461Z,101658.72
2022-10-17T01:16:20.151Z,101659.75
2022-10-17T01:19:30.214Z,101654.41
2022-10-17T01:22:37.991Z,101651.00
2022-10-17T01:25:52.526Z,101640.38
2022-10-17T01:29:03.120Z,101641.03
2022-10-17T01:31:44.671Z,101646.66
2022-10-17T01:34:44.365Z,101633.81
2022-10-17T01:41:03.110Z,101635.97
2022-10-17T01:44:00.894Z,101624.63
2022-10-17T01:46:39.107Z,101623.00
2022-10-17T01:49:17.282Z,101626.66
2022-10-17T01:52:00.914Z,101630.06
2022-10-17T01:54:48.290Z,101625.44
2022-10-17T01:57:31.338Z,101629.13
2022-10-17T01:59:59.838Z,101628.63
2022-10-17T02:02:28.920Z,101638.34
2022-10-17T02:04:57.925Z,101637.25
2022-10-17T02:07:25.140Z,101630.34
2022-10-17T02:09:52.667Z,101636.19
2022-10-17T02:12:25.575Z,101634.53
2022-10-17T02:15:18.750Z,101639.91
2022-10-17T02:18:33.878Z,101640.19
2022-10-17T02:21:23.123Z,101629.34
2022-10-17T02:24:01.942Z,101630.75
2022-10-17T02:26:53.527Z,101633.53
2022-10-17T02:29:36.778Z,101626.84
2022-10-17T02:32:12.260Z,101632.91
2022-10-17T02:34:50.821Z,101629.59
2022-10-17T02:37:28.922Z,101626.03
2022-10-17T02:40:01.650Z,101621.56
2022-10-17T02:42:32.304Z,101615.47
2022-10-17T02:45:04.160Z,101616.63
2022-10-17T02:48:14.695Z,101617.97
2022-10-17T02:51:33.625Z,101612.44
2022-10-17T02:54:28.054Z,101607.28
2022-10-17T02:57:15.763Z,101603.53
2022-10-17T02:59:47.886Z,101605.69
2022-10-17T03:02:15.175Z,101609.47
2022-10-17T03:04:47.848Z,101616.94
2022-10-17T03:07:14.844Z,101613.41
2022-10-17T03:09:41.859Z,101620.00
2022-10-17T03:12:12.104Z,101620.72
2022-10-17T03:14:39.288Z,101628.34
2022-10-17T03:17:06.570Z,101622.38
2022-10-17T03:19:33.501Z,101619.53
2022-10-17T03:22:00.504Z,101618.78
2022-10-17T03:24:27.507Z,101615.38
2022-10-17T03:26:54.513Z,101612.81
2022-10-17T03:29:21.509Z,101617.97
2022-10-17T03:31:48.441Z,101612.28
2022-10-17T03:34:17.782Z,101604.97
2022-10-17T03:36:46.203Z,101614.13
2022-10-17T03:39:13.509Z,101609.91
2022-10-17T03:41:40.557Z,101605.03
2022-10-17T03:44:07.699Z,101603.69
2022-10-17T03:46:34.816Z,101610.06
2022-10-17T03:49:01.842Z,101598.44
2022-10-17T03:51:28.962Z,101595.00
2022-10-17T03:53:56.058Z,101598.94
2022-10-17T03:56:26.629Z,101594.50
2022-10-17T03:58:55.762Z,101595.34
2022-10-17T04:01:23.803Z,101600.28
2022-10-17T04:03:54.846Z,101597.56
2022-10-17T04:06:23.366Z,101591.41
2022-10-17T04:08:50.708Z,101590.03
2022-10-17T04:11:21.796Z,101592.31
2022-10-17T04:13:55.313Z,101592.66
2022-10-17T04:16:23.868Z,101589.66
2022-10-17T04:18:58.555Z,101581.09
2022-10-17T04:21:29.284Z,101581.25
2022-10-17T04:24:00.738Z,101582.88
2022-10-17T04:26:28.177Z,101585.66
2022-10-17T04:28:55.257Z,101582.34
2022-10-17T04:31:22.829Z,101583.00
2022-10-17T04:33:50.933Z,101583.59
2022-10-17T04:36:20.799Z,101594.72
2022-10-17T04:38:47.789Z,101583.09
2022-10-17T04:41:18.918Z,101584.44
2022-10-17T04:43:50.114Z,101580.94
2022-10-17T04:46:18.675Z,101584.38
2022-10-17T04:48:45.879Z,101584.16
2022-10-17T04:51:21.778Z,101594.06
2022-10-17T04:53:51.414Z,101593.16
2022-10-17T04:56:25.196Z,101586.44
2022-10-17T04:58:52.960Z,101587.59
2022-10-17T05:01:24.536Z,101588.41
2022-10-17T05:03:53.059Z,101593.16
2022-10-17T05:06:28.375Z,101589.94
2022-10-17T05:08:56.565Z,101588.44
2022-10-17T05:11:29.931Z,101587.06
2022-10-17T05:14:02.121Z,101586.78
2022-10-17T05:16:30.948Z,101588.72
2022-10-17T05:18:59.986Z,101590.19
2022-10-17T05:21:30.341Z,101587.69
2022-10-17T05:23:58.262Z,101591.59
2022-10-17T05:26:26.885Z,101589.97
2022-10-17T05:28:54.816Z,101595.22
2022-10-17T05:31:21.759Z,101581.31
2022-10-17T05:33:48.789Z,101578.22
2022-10-17T05:36:15.771Z,101594.38
2022-10-17T05:38:42.669Z,101586.69
2022-10-17T05:41:10.944Z,101585.84
2022-10-17T05:43:37.924Z,101585.00
2022-10-17T05:46:07.165Z,101579.97
2022-10-17T05:48:35.683Z,101587.06
2022-10-17T05:51:08.875Z,101590.78
2022-10-17T05:53:40.818Z,101582.34
2022-10-17T05:56:12.851Z,101596.13
2022-10-17T05:58:50.444Z,101599.94
2022-10-17T06:01:18.794Z,101605.38
2022-10-17T06:03:45.727Z,101613.72
2022-10-17T06:06:15.683Z,101615.06
2022-10-17T06:08:44.242Z,101609.50
2022-10-17T06:11:13.030Z,101622.78
2022-10-17T06:13:41.195Z,101620.53
2022-10-17T06:16:08.658Z,101629.84
2022-10-17T06:18:35.650Z,101634.00
2022-10-17T06:21:11.196Z,101635.84
2022-10-17T06:23:38.491Z,101634.09
2022-10-17T06:26:10.146Z,101633.78
2022-10-17T06:28:37.644Z,101647.06
2022-10-17T06:31:11.128Z,101664.97
2022-10-17T06:33:39.470Z,101657.13
2022-10-17T06:36:10.363Z,101653.72
2022-10-17T06:38:37.586Z,101658.69
2022-10-17T06:41:19.074Z,101654.94
2022-10-17T06:43:47.515Z,101661.72
2022-10-17T06:46:19.009Z,101655.53
2022-10-17T06:48:46.234Z,101658.13
2022-10-17T06:51:13.446Z,101654.06
2022-10-17T06:53:41.010Z,101653.63
2022-10-17T06:56:10.480Z,101660.38
2022-10-17T06:58:40.467Z,101655.22
2022-10-17T07:01:12.951Z,101660.97
2022-10-17T07:03:41.675Z,101660.84
2022-10-17T07:06:10.845Z,101663.88
2022-10-17T07:08:38.225Z,101660.81
2022-10-17T07:11:21.655Z,101661.59
2022-10-17T07:13:50.369Z,101676.78
2022-10-17T07:16:17.792Z,101673.72
2022-10-17T07:18:44.742Z,101672.44
2022-10-17T07:21:11.702Z,101670.66
2022-10-17T07:23:39.928Z,101673.28
2022-10-17T07:26:13.986Z,101675.50
2022-10-17T07:28:46.754Z,101681.41
2022-10-17T07:31:19.376Z,101675.41
2022-10-17T07:36:34.235Z,101679.38
2022-10-17T07:39:01.138Z,101682.97
2022-10-17T07:41:28.099Z,101671.13
2022-10-17T07:43:56.077Z,101684.09
2022-10-17T07:46:22.997Z,101690.00
2022-10-17T07:48:50.070Z,101679.59
2022-10-17T07:51:18.450Z,101685.00
2022-10-17T07:53:48.691Z,101686.72
2022-10-17T07:56:16.371Z,101686.97
2022-10-17T07:58:43.532Z,101684.28
2022-10-17T08:01:15.607Z,101682.53
2022-10-17T08:03:46.553Z,101684.25
2022-10-17T08:06:14.400Z,101686.50
2022-10-17T08:08:42.834Z,101693.53
2022-10-17T08:11:14.381Z,101697.91
2022-10-17T08:13:42.424Z,101696.19
2022-10-17T08:16:13.638Z,101700.56
2022-10-17T08:18:43.526Z,101693.50
2022-10-17T08:21:13.497Z,101695.44
2022-10-17T08:23:41.352Z,101693.88
2022-10-17T08:26:10.982Z,101692.88
2022-10-17T08:28:40.576Z,101695.59
2022-10-17T08:31:13.074Z,101691.28
2022-10-17T08:33:41.582Z,101684.38
2022-10-17T08:36:12.279Z,101684.94
2022-10-17T08:38:43.792Z,101685.75
2022-10-17T08:41:44.320Z,101681.84
2022-10-17T08:44:29.113Z,101678.03
2022-10-17T08:47:03.932Z,101684.66
2022-10-17T08:49:54.409Z,101677.16
2022-10-17T08:52:35.684Z,101673.00
2022-10-17T08:55:02.756Z,101673.28
2022-10-17T08:57:30.059Z,101671.13
2022-10-17T08:59:57.930Z,101664.31
2022-10-17T09:02:44.459Z,101672.66
2022-10-17T09:05:50.561Z,101673.13
2022-10-17T09:08:38.553Z,101675.38
2022-10-17T09:11:41.965Z,101677.78
2022-10-17T09:14:45.368Z,101686.22
2022-10-17T09:17:52.577Z,101679.16
2022-10-17T09:20:44.423Z,101678.09
2022-10-17T09:23:24.306Z,101676.50
2022-10-17T09:26:00.109Z,101682.09
2022-10-17T09:28:37.152Z,101681.66
2022-10-17T09:31:10.652Z,101674.94
2022-10-17T09:33:54.677Z,101672.56
2022-10-17T09:36:27.303Z,101679.72
2022-10-17T09:39:01.117Z,101678.06
2022-10-17T09:41:46.422Z,101676.13
2022-10-17T09:44:47.632Z,101667.22
2022-10-17T09:47:42.648Z,101666.47
2022-10-17T09:50:30.396Z,101673.16
2022-10-17T09:53:14.920Z,101678.00
2022-10-17T09:55:55.616Z,101668.47
2022-10-17T09:58:24.117Z,101655.91
2022-10-17T10:00:51.106Z,101657.97
2022-10-17T10:03:26.409Z,101666.81
2022-10-17T10:06:15.713Z,101665.41
2022-10-17T10:09:00.540Z,101664.16
2022-10-17T10:11:55.757Z,101661.31
2022-10-17T10:14:24.304Z,101660.00
2022-10-17T10:16:55.821Z,101666.81
2022-10-17T10:19:37.696Z,101670.56
2022-10-17T10:22:19.506Z,101671.19
2022-10-17T10:25:10.671Z,101668.28
2022-10-17T10:27:44.731Z,101663.25
2022-10-17T10:30:32.819Z,101671.44
2022-10-17T10:33:01.835Z,101666.88
2022-10-17T10:35:37.649Z,101670.50
2022-10-17T10:38:17.475Z,101669.25
2022-10-17T10:40:55.650Z,101667.41
2022-10-17T10:43:47.685Z,101661.53
2022-10-17T10:46:27.626Z,101655.56
2022-10-17T10:49:29.876Z,101656.31
2022-10-17T10:52:05.866Z,101660.50
2022-10-17T10:55:25.093Z,101655.56
2022-10-17T10:58:20.508Z,101647.47
2022-10-17T11:00:51.646Z,101653.94
2022-10-17T11:03:59.831Z,101652.31
2022-10-17T11:06:37.510Z,101655.00
2022-10-17T11:09:32.954Z,101642.69
2022-10-17T11:12:28.962Z,101646.25
2022-10-17T11:15:30.049Z,101644.84
2022-10-17T11:18:28.863Z,101627.25
2022-10-17T11:21:29.087Z,101640.00
2022-10-17T11:24:34.189Z,101621.06
2022-10-17T11:27:06.478Z,101626.28
2022-10-17T11:29:41.367Z,101620.50
2022-10-17T11:32:43.940Z,101618.41
2022-10-17T11:35:32.353Z,101621.72
2022-10-17T11:38:43.487Z,101619.47
2022-10-17T11:41:39.782Z,101621.06
2022-10-17T11:44:40.375Z,101612.09
2022-10-17T11:47:51.651Z,101616.25
2022-10-17T11:53:34.680Z,101611.06
2022-10-17T11:56:07.592Z,101605.56
2022-10-17T11:58:54.392Z,101629.44
2022-10-17T12:01:45.162Z,101613.69
2022-10-17T12:04:52.882Z,101597.16
2022-10-17T12:07:53.068Z,101608.50
2022-10-17T12:11:01.152Z,101609.38
2022-10-17T12:13:28.467Z,101608.94
2022-10-17T12:16:19.716Z,101611.75
2022-10-17T12:19:02.668Z,101610.16
2022-10-17T12:22:21.459Z,101609.88
2022-10-17T12:25:04.463Z,101600.78
2022-10-17T12:27:46.396Z,101602.38
2022-10-17T12:30:13.610Z,101602.00
2022-10-17T12:33:22.503Z,101601.94
2022-10-17T12:36:32.153Z,101606.03
2022-10-17T12:39:01.883Z,101606.88
2022-10-17T12:41:40.784Z,101603.63
2022-10-17T12:44:13.972Z,101603.53
2022-10-17T12:47:29.439Z,101597.38
2022-10-17T12:49:56.872Z,101598.56
2022-10-17T12:52:32.861Z,101593.31
2022-10-17T12:55:12.084Z,101603.38
2022-10-17T12:57:56.919Z,101594.94
2022-10-17T13:01:18.898Z,101594.63
2022-10-17T13:03:50.557Z,101593.50
2022-10-17T13:06:28.717Z,101598.38
2022-10-17T13:09:21.699Z,101592.66
2022-10-17T13:11:54.122Z,101583.31
2022-10-17T13:14:25.689Z,101584.78
2022-10-17T13:17:01.136Z,101585.22
2022-10-17T13:19:45.704Z,101589.44
2022-10-17T13:22:22.807Z,101585.00
2022-10-17T13:24:54.219Z,101589.13
2022-10-17T13:27:34.063Z,101588.28
2022-10-17T13:30:30.993Z,101586.28
2022-10-17T13:33:01.913Z,101588.69
2022-10-17T13:38:32.687Z,101598.84
2022-10-17T13:41:30.532Z,101589.59
2022-10-17T13:43:54.564Z,101592.38
2022-10-17T13:46:39.237Z,101594.75
2022-10-17T13:49:28.133Z,101590.59
2022-10-17T13:51:59.195Z,101578.50
2022-10-17T13:54:36.624Z,101589.03
2022-10-17T13:57:17.440Z,101587.00
2022-10-17T13:59:49.924Z,101585.84
2022-10-17T14:02:29.867Z,101588.19
2022-10-17T14:05:21.300Z,101595.16
2022-10-17T14:08:11.816Z,101600.03
2022-10-17T14:10:44.084Z,101605.75
2022-10-17T14:13:35.948Z,101602.56
2022-10-17T14:16:04.967Z,101593.66
2022-10-17T14:18:38.122Z,101599.34
2022-10-17T14:24:34.496Z,101597.63
2022-10-17T14:27:01.534Z,101601.13
2022-10-17T14:29:51.808Z,101598.22
2022-10-17T14:32:22.327Z,101593.69
2022-10-17T14:35:10.577Z,101593.63
2022-10-17T14:37:53.202Z,101594.75
2022-10-17T14:40:26.010Z,101589.44
2022-10-17T14:43:00.126Z,101601.06
2022-10-17T14:45:40.077Z,101604.03
2022-10-17T14:48:21.836Z,101596.88
2022-10-17T14:51:12.887Z,101606.47
2022-10-17T14:53:43.524Z,101604.78
2022-10-17T14:56:52.666Z,101599.69
2022-10-17T14:59:51.621Z,101604.75
2022-10-17T15:02:15.657Z,101599.63
2022-10-17T15:04:42.844Z,101599.16
2022-10-17T15:07:18.382Z,101605.88
2022-10-17T15:09:53.931Z,101604.53
2022-10-17T15:12:26.022Z,101615.19
2022-10-17T15:14:54.129Z,101609.72
2022-10-17T15:17:31.598Z,101604.34
2022-10-17T15:19:59.227Z,101609.22
2022-10-17T15:22:26.558Z,101613.81
2022-10-17T15:24:53.708Z,101611.63
2022-10-17T15:27:26.382Z,101619.13
2022-10-17T15:29:53.520Z,101615.38
2022-10-17T15:32:20.615Z,101620.34
2022-10-17T15:34:47.673Z,101621.75
2022-10-17T15:37:25.326Z,101618.72
2022-10-17T15:39:55.659Z,101619.16
2022-10-17T15:42:32.538Z,101626.91
2022-10-17T15:44:59.671Z,101616.19
2022-10-17T15:47:36.184Z,101623.50
2022-10-17T15:50:06.691Z,101617.97
2022-10-17T15:52:33.599Z,101618.97
2022-10-17T15:55:04.145Z,101621.91
2022-10-17T15:57:40.429Z,101619.47
2022-10-17T16:00:24.046Z,101622.25
2022-10-17T16:02:51.594Z,101616.94
2022-10-17T16:05:26.218Z,101618.47
2022-10-17T16:07:55.637Z,101624.97
2022-10-17T16:10:25.591Z,101619.41
2022-10-17T16:12:53.171Z,101627.69
2022-10-17T16:15:28.258Z,101627.13
2022-10-17T16:18:00.467Z,101620.25
2022-10-17T16:20:30.008Z,101622.84
2022-10-17T16:23:00.519Z,101621.34
2022-10-17T16:25:31.025Z,101624.97
2022-10-17T16:28:01.734Z,101635.97
2022-10-17T16:30:32.110Z,101639.59
2022-10-17T16:32:59.265Z,101633.84
2022-10-17T16:35:33.328Z,101635.84
2022-10-17T16:38:06.438Z,101645.84
2022-10-17T16:40:34.647Z,101637.53
2022-10-17T16:43:01.633Z,101643.34
2022-10-17T16:45:28.847Z,101648.03
2022-10-17T16:47:55.889Z,101650.25
2022-10-17T16:50:22.983Z,101647.88
2022-10-17T16:52:53.141Z,101639.47
2022-10-17T16:55:20.582Z,101644.25
2022-10-17T16:57:49.108Z,101645.31
2022-10-17T17:00:17.775Z,101648.53
2022-10-17T17:02:48.457Z,101644.66
2022-10-17T17:05:16.094Z,101642.06
2022-10-17T17:07:43.206Z,101645.06
2022-10-17T17:10:10.301Z,101645.84
2022-10-17T17:12:37.617Z,101648.84
2022-10-17T17:15:06.221Z,101658.50
2022-10-17T17:17:49.310Z,101659.50
2022-10-17T17:20:18.412Z,101656.22
2022-10-17T17:22:45.411Z,101646.66
2022-10-17T17:25:12.458Z,101651.78
2022-10-17T17:27:39.387Z,101641.28
2022-10-17T17:30:07.778Z,101644.75
2022-10-17T17:32:34.703Z,101644.09
2022-10-17T17:35:01.863Z,101655.66
2022-10-17T17:37:29.242Z,101650.59
2022-10-17T17:39:56.400Z,101652.78
2022-10-17T17:42:24.058Z,101652.13
2022-10-17T17:44:51.147Z,101659.94
2022-10-17T17:47:18.664Z,101657.63
2022-10-17T17:49:45.732Z,101658.06
2022-10-17T17:52:12.699Z,101664.16
2022-10-17T17:54:40.968Z,101660.38
2022-10-17T17:57:08.237Z,101668.28
2022-10-17T17:59:35.438Z,101676.22
2022-10-17T18:02:05.384Z,101671.81
2022-10-17T18:04:32.442Z,101684.22
2022-10-17T18:06:59.365Z,101675.81
2022-10-17T18:09:26.373Z,101684.53
2022-10-17T18:11:53.472Z,101684.25
2022-10-17T18:14:23.859Z,101690.00
2022-10-17T18:16:51.037Z,101690.66
2022-10-17T18:19:18.060Z,101685.91
2022-10-17T18:21:45.160Z,101684.03
2022-10-17T18:24:12.131Z,101689.63
2022-10-17T18:26:39.098Z,101683.44
2022-10-17T18:29:06.338Z,101686.88
2022-10-17T18:31:36.004Z,101690.34
2022-10-17T18:34:05.792Z,101692.50
2022-10-17T18:36:35.432Z,101697.09
2022-10-17T18:39:03.504Z,101698.25
2022-10-17T18:41:32.184Z,101704.84
2022-10-17T18:43:59.546Z,101700.72
2022-10-17T18:46:40.759Z,101699.91
2022-10-17T18:49:14.111Z,101703.38
2022-10-17T18:51:42.746Z,101703.38
2022-10-17T18:54:17.260Z,101708.78
2022-10-17T18:56:45.074Z,101710.91
2022-10-17T18:59:11.975Z,101702.88
2022-10-17T19:01:39.169Z,101709.44
2022-10-17T19:04:06.307Z,101713.53
2022-10-17T19:06:33.376Z,101720.13
2022-10-17T19:09:05.705Z,101723.88
2022-10-17T19:11:36.005Z,101728.47
2022-10-17T19:14:13.841Z,101739.97
2022-10-17T19:16:50.900Z,101749.66
2022-10-17T19:19:22.759Z,101744.91
2022-10-17T19:21:51.853Z,101748.66
2022-10-17T19:24:26.786Z,101758.19
2022-10-17T19:27:02.700Z,101757.50
2022-10-17T19:29:33.983Z,101749.13
2022-10-17T19:32:02.662Z,101750.94
2022-10-17T19:34:29.882Z,101752.09
2022-10-17T19:36:57.074Z,101746.19
2022-10-17T19:39:25.210Z,101744.72
2022-10-17T19:41:52.378Z,101748.63
2022-10-17T19:44:19.681Z,101745.03
2022-10-17T19:46:49.080Z,101747.19
2022-10-17T19:49:16.646Z,101747.81
2022-10-17T19:51:44.070Z,101751.91
2022-10-17T19:54:11.282Z,101751.09
2022-10-17T19:56:38.738Z,101752.38
2022-10-17T19:59:08.478Z,101753.88
2022-10-17T20:01:40.969Z,101745.50
2022-10-17T20:04:11.510Z,101751.38
2022-10-17T20:06:41.460Z,101761.56
2022-10-17T20:09:16.677Z,101764.34
2022-10-17T20:11:45.150Z,101758.25
2022-10-17T20:14:12.136Z,101760.91
2022-10-17T20:16:39.059Z,101764.00
2022-10-17T20:19:13.616Z,101763.50
2022-10-17T20:21:40.722Z,101763.31
2022-10-17T20:24:13.304Z,101757.22
2022-10-17T20:26:42.482Z,101761.00
2022-10-17T20:29:19.839Z,101766.34
2022-10-17T20:31:48.689Z,101759.94
2022-10-17T20:34:22.511Z,101770.28
2022-10-17T20:36:50.297Z,101772.91
2022-10-17T20:39:20.717Z,101782.41
2022-10-17T20:41:47.854Z,101783.84
2022-10-17T20:44:15.214Z,101779.44
2022-10-17T20:46:48.732Z,101782.22
2022-10-17T20:49:27.559Z,101792.56
2022-10-17T20:51:54.506Z,101790.91
2022-10-17T20:54:22.396Z,101792.56
2022-10-17T20:56:49.551Z,101802.06
2022-10-17T20:59:18.288Z,101801.41
2022-10-17T21:01:47.432Z,101801.19
2022-10-17T21:04:44.944Z,101804.44
2022-10-17T21:07:01.958Z,101801.31
2022-10-17T21:09:28.977Z,101804.09
2022-10-17T21:11:56.896Z,101802.97
2022-10-17T21:14:25.749Z,101803.47
2022-10-17T21:16:53.223Z,101806.59
2022-10-17T21:19:21.866Z,101809.19
2022-10-17T21:21:49.356Z,101810.13
2022-10-17T21:24:19.240Z,101815.03
2022-10-17T21:26:55.160Z,101822.91
2022-10-17T21:29:23.858Z,101826.31
2022-10-17T21:31:51.466Z,101819.91
2022-10-17T21:34:24.672Z,101824.97
2022-10-17T21:36:53.292Z,101819.19
2022-10-17T21:39:22.036Z,101828.88
2022-10-17T21:41:49.088Z,101812.66
2022-10-17T21:44:24.158Z,101830.75
2022-10-17T21:46:53.887Z,101821.88
2022-10-17T21:49:24.949Z,101819.59
2022-10-17T21:51:53.439Z,101830.84
2022-10-17T21:54:23.584Z,101832.31
2022-10-17T21:56:52.330Z,101833.28
2022-10-17T21:59:19.315Z,101836.50
2022-10-17T22:01:46.911Z,101839.09
2022-10-17T22:04:18.684Z,101842.53
2022-10-17T22:06:51.325Z,101838.72
2022-10-17T22:09:26.549Z,101851.50
2022-10-17T22:11:57.054Z,101850.59
2022-10-17T22:14:27.543Z,101837.09
2022-10-17T22:16:55.642Z,101852.47
2022-10-17T22:19:26.943Z,101854.22
2022-10-17T22:21:55.340Z,101858.59
2022-10-17T22:24:23.801Z,101860.88
2022-10-17T22:26:52.312Z,101860.34
2022-10-17T22:29:20.263Z,101855.91
2022-10-17T22:31:47.454Z,101857.78
2022-10-17T22:34:17.927Z,101856.84
2022-10-17T22:36:47.757Z,101856.00
2022-10-17T22:39:14.983Z,101852.59
2022-10-17T22:41:41.952Z,101858.97
2022-10-17T22:44:08.939Z,101860.94
2022-10-17T22:46:36.511Z,101862.59
2022-10-17T22:49:04.025Z,101866.22
2022-10-17T22:51:32.374Z,101861.97
2022-10-17T22:53:59.272Z,101860.31
2022-10-17T22:56:26.420Z,101863.59
2022-10-17T22:58:53.920Z,101854.13
2022-10-17T23:01:25.107Z,101856.59
2022-10-17T23:03:53.400Z,101858.53
2022-10-17T23:06:22.303Z,101857.72
2022-10-17T23:08:49.876Z,101868.66
2022-10-17T23:11:17.582Z,101861.47
2022-10-17T23:13:44.758Z,101871.78
2022-10-17T23:16:11.820Z,101862.59
2022-10-17T23:18:39.851Z,101860.81
2022-10-17T23:21:07.961Z,101861.34
2022-10-17T23:23:36.029Z,101865.78
2022-10-17T23:26:14.514Z,101862.88
2022-10-17T23:28:43.437Z,101865.66
2022-10-17T23:31:19.699Z,101866.97
2022-10-17T23:33:49.812Z,101873.72
2022-10-17T23:36:20.435Z,101875.97
2022-10-17T23:38:49.142Z,101879.91
2022-10-17T23:41:17.753Z,101883.22
2022-10-17T23:43:44.774Z,101874.53
2022-10-17T23:46:12.730Z,101873.06
2022-10-17T23:48:40.832Z,101872.75
2022-10-17T23:51:13.924Z,101875.75
2022-10-17T23:53:41.241Z,101867.25
2022-10-17T23:56:11.379Z,101871.38
2022-10-17T23:58:39.591Z,101864.38
